Bubaque Airport


Codes: GGBU/BQE
Name: Bubaque Airport
City: Bubaque
Country: Guinea-Bissau
Elevation: 0 ft.

Photos at Bubaque Airport


   Photos courtesy of SpottingLog. You can add your own sightings and photos by signing up for a free trial today.



No photos found.

Weather at Bubaque Airport


Time (UTC)DescriptionTempratureWindCloud coverageVisibilityPressureHumidity
18-Apr-2024 00:00Clear Sky26°C7 mph, W0%10000m1010hPa75%
18-Apr-2024 03:00Clear Sky26°C11 mph, SW0%10000m1010hPa73%
18-Apr-2024 06:00Clear Sky26°C11 mph, SW0%10000m1010hPa71%
18-Apr-2024 09:00Clear Sky26°C9 mph, SW3%10000m1011hPa72%
18-Apr-2024 12:00Clear Sky26°C9 mph, W3%10000m1011hPa69%
18-Apr-2024 15:00Broken Clouds26°C11 mph, W54%10000m1009hPa67%
18-Apr-2024 18:00Scattered Clouds26°C18 mph, SW45%10000m1008hPa75%
18-Apr-2024 21:00Scattered Clouds26°C18 mph, SW37%10000m1009hPa75%
19-Apr-2024 00:00Broken Clouds26°C13 mph, W66%10000m1010hPa74%
19-Apr-2024 03:00Broken Clouds26°C13 mph, W58%10000m1009hPa70%
19-Apr-2024 06:00Broken Clouds26°C13 mph, NW53%10000m1009hPa69%
19-Apr-2024 09:00Broken Clouds26°C9 mph, NW75%10000m1011hPa67%
19-Apr-2024 12:00Scattered Clouds27°C2 mph, SW43%10000m1011hPa56%
19-Apr-2024 15:00Clear Sky26°C16 mph, SW2%10000m1008hPa68%
19-Apr-2024 18:00Clear Sky26°C18 mph, SW2%10000m1007hPa72%
19-Apr-2024 21:00Clear Sky26°C16 mph, W0%10000m1009hPa69%
20-Apr-2024 00:00Clear Sky26°C11 mph, SW2%10000m1011hPa67%
20-Apr-2024 03:00Scattered Clouds25°C11 mph, SW34%10000m1009hPa70%
20-Apr-2024 06:00Broken Clouds25°C11 mph, W60%10000m1010hPa73%
20-Apr-2024 09:00Broken Clouds25°C9 mph, W76%10000m1011hPa73%
20-Apr-2024 12:00Broken Clouds25°C7 mph, SW73%10000m1011hPa72%
20-Apr-2024 15:00Broken Clouds25°C11 mph, SW58%10000m1009hPa72%
20-Apr-2024 18:00Broken Clouds25°C13 mph, SW65%10000m1008hPa72%
20-Apr-2024 21:00Broken Clouds25°C13 mph, SW64%10000m1010hPa75%
21-Apr-2024 00:00Scattered Clouds24°C13 mph, W34%10000m1010hPa76%
21-Apr-2024 03:00Few Clouds24°C13 mph, W24%10000m1009hPa75%
21-Apr-2024 06:00Broken Clouds24°C9 mph, NW55%10000m1009hPa72%
21-Apr-2024 09:00Overcast Clouds24°C7 mph, NW98%10000m1011hPa71%
21-Apr-2024 12:00Overcast Clouds24°C7 mph, W99%10000m1011hPa69%
21-Apr-2024 15:00Overcast Clouds25°C11 mph, W99%10000m1009hPa70%
21-Apr-2024 18:00Broken Clouds25°C13 mph, W59%10000m1008hPa72%
21-Apr-2024 21:00Clear Sky25°C16 mph, W6%10000m1009hPa70%
22-Apr-2024 00:00Clear Sky24°C16 mph, W6%10000m1010hPa71%
22-Apr-2024 03:00Few Clouds24°C13 mph, NW24%10000m1009hPa72%
22-Apr-2024 06:00Scattered Clouds24°C13 mph, NW42%10000m1009hPa73%
22-Apr-2024 09:00Clear Sky24°C9 mph, NW0%10000m1011hPa70%
22-Apr-2024 12:00Clear Sky24°C7 mph, NW2%10000m1011hPa66%
22-Apr-2024 15:00Few Clouds25°C11 mph, W23%10000m1009hPa67%
22-Apr-2024 18:00Few Clouds25°C16 mph, W15%10000m1008hPa70%
22-Apr-2024 21:00Few Clouds24°C18 mph, W12%10000m1009hPa73%